Time;durP1;ratioP1;P1;durP2;ratioP2;P2;SDS_P1;SDS_P2;PMS_P1;PMS_P2;Temp;Humidity;BMP_temperature;BMP_pressure;BME280_temperature;BME280_humidity;BME280_pressure;Samples;Min_cycle;Max_cycle;Signal;HPM_P1;HPM_P2
2022/06/27 00:01:50;;;;;;;7.85;5.50;;;17.60;99.90;;;;;;4996299;28;20405;-74
2022/06/27 00:04:16;;;;;;;12.23;6.32;;;17.50;99.90;;;;;;4996559;28;20061;-75
2022/06/27 00:06:42;;;;;;;11.98;6.35;;;17.60;99.90;;;;;;4996626;28;20461;-73
2022/06/27 00:09:07;;;;;;;8.05;5.53;;;17.50;99.90;;;;;;4996681;28;20068;-75
2022/06/27 00:11:33;;;;;;;6.82;5.22;;;17.60;99.90;;;;;;4995913;28;20046;-74
2022/06/27 00:13:59;;;;;;;10.15;6.68;;;17.60;99.90;;;;;;4996570;28;20050;-74
2022/06/27 00:16:25;;;;;;;11.02;6.50;;;17.50;99.90;;;;;;4995915;28;20062;-74
2022/06/27 00:18:50;;;;;;;8.90;6.50;;;17.50;99.90;;;;;;4996321;28;20050;-75
2022/06/27 00:21:16;;;;;;;7.97;5.82;;;17.50;99.90;;;;;;4996619;28;20092;-74
2022/06/27 00:23:42;;;;;;;13.23;7.40;;;17.50;99.90;;;;;;4996152;28;20101;-73
2022/06/27 00:26:08;;;;;;;8.00;6.20;;;17.40;99.90;;;;;;4996438;28;20082;-73
2022/06/27 00:28:34;;;;;;;9.60;8.10;;;17.50;99.90;;;;;;4995643;28;20042;-74
2022/06/27 00:30:59;;;;;;;9.52;7.30;;;17.40;99.90;;;;;;4996270;28;20145;-75
2022/06/27 00:33:25;;;;;;;9.60;7.70;;;17.40;99.90;;;;;;4996192;28;20053;-75
2022/06/27 00:35:53;;;;;;;8.80;7.85;;;17.40;99.90;;;;;;4995388;28;20400;-74
2022/06/27 00:38:19;;;;;;;12.13;8.63;;;17.40;99.90;;;;;;4995577;28;20050;-74
2022/06/27 00:40:45;;;;;;;14.23;9.55;;;17.40;99.90;;;;;;4996077;28;20057;-74
2022/06/27 00:43:11;;;;;;;12.60;9.30;;;17.40;99.90;;;;;;4996192;28;20129;-73
2022/06/27 00:45:36;;;;;;;10.85;7.88;;;17.40;99.90;;;;;;4995453;28;20133;-74
2022/06/27 00:48:02;;;;;;;11.38;7.20;;;17.40;99.90;;;;;;4995968;28;20209;-74
2022/06/27 00:50:28;;;;;;;12.20;7.40;;;17.40;99.90;;;;;;4996142;28;20046;-74
2022/06/27 00:52:54;;;;;;;10.23;7.75;;;17.40;99.90;;;;;;4995424;28;20355;-74
2022/06/27 00:55:20;;;;;;;11.77;8.10;;;17.40;99.90;;;;;;4994443;28;20143;-75
2022/06/27 00:57:45;;;;;;;9.75;7.35;;;17.40;99.90;;;;;;4995847;28;20062;-73
2022/06/27 01:00:12;;;;;;;8.60;6.90;;;17.40;99.90;;;;;;4996087;28;20046;-75
2022/06/27 01:02:37;;;;;;;9.88;7.40;;;17.40;99.90;;;;;;4994866;28;20065;-74
2022/06/27 01:05:04;;;;;;;11.25;7.20;;;17.40;99.90;;;;;;4996041;28;20042;-73
2022/06/27 01:07:30;;;;;;;9.82;7.07;;;17.40;99.90;;;;;;4995562;28;20046;-74
2022/06/27 01:09:57;;;;;;;9.65;6.45;;;17.30;99.90;;;;;;4995694;28;20408;-74
2022/06/27 01:12:23;;;;;;;12.70;7.22;;;17.40;99.90;;;;;;4995722;28;20077;-74
2022/06/27 01:14:50;;;;;;;10.82;6.57;;;17.30;99.90;;;;;;4994582;28;20094;-74
2022/06/27 01:17:16;;;;;;;8.50;6.70;;;17.40;99.90;;;;;;4995471;28;20457;-75
2022/06/27 01:19:42;;;;;;;8.63;6.07;;;17.40;99.90;;;;;;4994635;28;20049;-73
2022/06/27 01:22:09;;;;;;;9.77;6.32;;;17.40;99.90;;;;;;4995498;28;20468;-76
2022/06/27 01:24:35;;;;;;;8.93;6.15;;;17.40;99.90;;;;;;4995144;28;20053;-74
2022/06/27 01:27:00;;;;;;;7.75;6.60;;;17.40;99.90;;;;;;4995161;28;20054;-74
2022/06/27 01:29:27;;;;;;;7.32;6.03;;;17.40;99.90;;;;;;4995353;28;20464;-74
2022/06/27 01:31:53;;;;;;;8.02;5.72;;;17.40;99.90;;;;;;4995017;28;20484;-74
2022/06/27 01:34:19;;;;;;;9.00;6.13;;;17.40;99.90;;;;;;4995263;28;20038;-74
2022/06/27 01:36:46;;;;;;;13.38;6.25;;;17.40;99.90;;;;;;4994002;28;20129;-74
2022/06/27 01:39:15;;;;;;;11.23;6.82;;;17.40;99.90;;;;;;4994984;28;20105;-75
2022/06/27 01:41:46;;;;;;;9.25;6.70;;;17.40;99.90;;;;;;4993802;28;20354;-74
2022/06/27 01:44:13;;;;;;;11.55;8.20;;;17.40;99.90;;;;;;4995266;28;20125;-74
2022/06/27 01:46:46;;;;;;;9.73;7.18;;;17.40;99.90;;;;;;4995223;28;20047;-73
2022/06/27 01:49:13;;;;;;;11.00;8.70;;;17.40;99.90;;;;;;4995142;28;20074;-75
2022/06/27 01:51:40;;;;;;;15.75;9.02;;;17.40;99.90;;;;;;4995219;28;20039;-74
2022/06/27 01:54:11;;;;;;;8.80;7.90;;;17.50;99.90;;;;;;4994111;28;20054;-75
2022/06/27 01:56:37;;;;;;;11.70;7.35;;;17.40;99.90;;;;;;4994974;28;20035;-74
2022/06/27 01:59:03;;;;;;;9.35;6.60;;;17.50;99.90;;;;;;4995042;28;20042;-74
2022/06/27 02:01:29;;;;;;;8.32;7.40;;;17.50;99.90;;;;;;4995104;28;20061;-75
2022/06/27 02:03:59;;;;;;;8.40;7.00;;;17.50;99.90;;;;;;4995170;28;20452;-73
2022/06/27 02:06:25;;;;;;;12.85;6.88;;;17.50;99.90;;;;;;4995142;28;20051;-75
2022/06/27 02:08:52;;;;;;;11.13;7.22;;;17.50;99.90;;;;;;4994644;28;20039;-75
2022/06/27 02:11:18;;;;;;;8.55;7.05;;;17.50;99.90;;;;;;4994734;28;20047;-75
2022/06/27 02:13:44;;;;;;;10.00;7.03;;;17.40;99.90;;;;;;4978022;28;20046;-74
2022/06/27 02:16:13;;;;;;;9.15;7.10;;;17.40;99.90;;;;;;4995017;28;20519;-74
2022/06/27 02:18:40;;;;;;;10.30;7.78;;;17.50;99.90;;;;;;4994788;28;20062;-74
2022/06/27 02:21:09;;;;;;;9.40;8.07;;;17.50;99.90;;;;;;4994881;28;20038;-74
2022/06/27 02:23:35;;;;;;;10.55;7.70;;;17.50;99.90;;;;;;4994621;28;20046;-74
2022/06/27 02:26:01;;;;;;;9.85;7.80;;;17.60;99.90;;;;;;4978003;28;20457;-76
2022/06/27 02:28:28;;;;;;;8.10;7.03;;;17.60;99.90;;;;;;4994362;28;20039;-75
2022/06/27 02:30:55;;;;;;;12.10;8.00;;;17.50;99.90;;;;;;4998517;28;20042;-74
2022/06/27 02:33:20;;;;;;;10.30;7.97;;;17.50;99.90;;;;;;4998380;28;20046;-74
2022/06/27 02:35:49;;;;;;;15.10;8.50;;;17.60;99.90;;;;;;4998178;28;20042;-74
2022/06/27 02:38:16;;;;;;;9.38;7.68;;;17.50;99.90;;;;;;4998825;28;20112;-74
2022/06/27 02:40:44;;;;;;;11.98;7.95;;;17.50;99.90;;;;;;4998600;28;20105;-75
2022/06/27 02:43:13;;;;;;;7.57;6.25;;;17.50;99.90;;;;;;4998500;28;20077;-74
2022/06/27 02:45:40;;;;;;;11.25;6.90;;;17.50;99.90;;;;;;4997202;28;20045;-74
2022/06/27 02:48:07;;;;;;;11.52;6.90;;;17.50;99.90;;;;;;4998227;28;20038;-74
2022/06/27 02:50:37;;;;;;;9.10;7.18;;;17.40;99.90;;;;;;4998182;28;20133;-75
2022/06/27 02:53:07;;;;;;;13.15;7.45;;;17.50;99.90;;;;;;4997967;28;20052;-74
2022/06/27 02:55:38;;;;;;;10.38;6.57;;;17.40;99.90;;;;;;4998014;28;20380;-74
2022/06/27 02:58:19;;;;;;;11.77;7.20;;;17.40;99.90;;;;;;4998199;28;20089;-75
2022/06/27 03:00:47;;;;;;;12.20;8.27;;;17.40;99.90;;;;;;4996869;28;20464;-74
2022/06/27 03:03:15;;;;;;;7.75;6.80;;;17.40;99.90;;;;;;4998056;28;20046;-74
2022/06/27 03:06:06;;;;;;;10.40;7.30;;;17.30;99.90;;;;;;4997515;28;20058;-74
2022/06/27 03:08:37;;;;;;;9.63;6.75;;;17.30;99.90;;;;;;4997495;28;20038;-74
2022/06/27 03:11:04;;;;;;;10.70;7.43;;;17.30;99.90;;;;;;4997727;28;20095;-74
2022/06/27 03:13:29;;;;;;;9.40;7.07;;;17.30;99.90;;;;;;4997757;28;20038;-74
2022/06/27 03:15:55;;;;;;;8.23;6.70;;;17.30;99.90;;;;;;4997778;28;20039;-74
2022/06/27 03:18:20;;;;;;;10.10;7.15;;;17.30;99.90;;;;;;4995876;28;20453;-74
2022/06/27 03:20:46;;;;;;;11.70;7.82;;;17.20;99.90;;;;;;4996797;28;20038;-74
2022/06/27 03:23:12;;;;;;;10.38;7.35;;;17.30;99.90;;;;;;4997091;28;20137;-74
2022/06/27 03:25:38;;;;;;;9.15;7.35;;;17.30;99.90;;;;;;4997136;28;20050;-75
2022/06/27 03:28:04;;;;;;;10.85;7.25;;;17.30;99.90;;;;;;4997465;28;20121;-74
2022/06/27 03:30:29;;;;;;;10.38;6.90;;;17.30;99.90;;;;;;4997489;28;20042;-75
2022/06/27 03:32:55;;;;;;;9.98;7.93;;;17.20;99.90;;;;;;4997439;28;20042;-74
2022/06/27 03:35:21;;;;;;;11.00;7.35;;;17.30;99.90;;;;;;4996608;28;20077;-74
2022/06/27 03:37:47;;;;;;;10.40;7.07;;;17.20;99.90;;;;;;4996610;28;20108;-74
2022/06/27 03:40:12;;;;;;;9.73;7.25;;;17.20;99.90;;;;;;4997158;28;20050;-74
2022/06/27 03:42:38;;;;;;;12.00;6.63;;;17.20;99.90;;;;;;4997114;28;20046;-74
2022/06/27 03:45:04;;;;;;;10.77;7.15;;;17.20;99.90;;;;;;4997027;28;20042;-75
2022/06/27 03:47:29;;;;;;;8.13;6.78;;;17.20;99.90;;;;;;4996857;28;20050;-74
2022/06/27 03:50:01;;;;;;;7.43;6.10;;;17.20;99.90;;;;;;4997180;28;20054;-73
2022/06/27 03:52:27;;;;;;;10.82;6.32;;;17.20;99.90;;;;;;4995831;28;20568;-74
2022/06/27 03:54:53;;;;;;;8.75;7.10;;;17.20;99.90;;;;;;4996864;28;20062;-74
2022/06/27 03:57:19;;;;;;;12.38;6.47;;;17.20;99.90;;;;;;4996924;28;20057;-75
2022/06/27 03:59:44;;;;;;;10.55;7.00;;;17.20;99.90;;;;;;4997036;28;20399;-74
2022/06/27 04:02:10;;;;;;;9.07;7.00;;;17.20;99.90;;;;;;4996990;28;20405;-74
2022/06/27 04:04:36;;;;;;;10.13;7.18;;;17.20;99.90;;;;;;4996946;28;20104;-74
2022/06/27 04:07:02;;;;;;;9.57;7.28;;;17.10;99.90;;;;;;4996522;28;20046;-73
2022/06/27 04:09:29;;;;;;;9.13;7.15;;;17.20;99.90;;;;;;4995946;28;20045;-73
2022/06/27 04:11:55;;;;;;;11.38;8.02;;;17.20;99.90;;;;;;4996683;28;20043;-75
2022/06/27 04:14:21;;;;;;;10.75;7.35;;;17.20;99.90;;;;;;4996551;28;20038;-73
2022/06/27 04:16:46;;;;;;;7.75;6.85;;;17.30;99.90;;;;;;4996614;28;20069;-75
2022/06/27 04:19:12;;;;;;;8.70;6.93;;;17.40;99.90;;;;;;4996223;28;20093;-74
2022/06/27 04:21:38;;;;;;;8.20;7.35;;;17.30;99.90;;;;;;4996124;28;20046;-74
2022/06/27 04:24:04;;;;;;;9.02;6.63;;;17.20;99.90;;;;;;4996111;28;20042;-73
2022/06/27 04:26:29;;;;;;;8.50;6.97;;;17.30;99.90;;;;;;4995869;28;20061;-74
2022/06/27 04:28:55;;;;;;;9.40;6.53;;;17.20;99.90;;;;;;4996050;28;20050;-74
2022/06/27 04:31:21;;;;;;;7.65;6.95;;;17.20;99.90;;;;;;4996404;28;20042;-74
2022/06/27 04:33:46;;;;;;;9.43;6.60;;;17.30;99.90;;;;;;4996446;28;20112;-74
2022/06/27 04:36:12;;;;;;;8.25;6.10;;;17.30;99.90;;;;;;4996221;28;20046;-73
2022/06/27 04:38:38;;;;;;;9.77;7.10;;;17.30;99.90;;;;;;4996065;28;20472;-75
2022/06/27 04:41:05;;;;;;;8.50;6.63;;;17.30;99.90;;;;;;4995996;28;20039;-75
2022/06/27 04:43:34;;;;;;;8.98;6.82;;;17.40;99.90;;;;;;4995609;28;20077;-74
2022/06/27 04:46:05;;;;;;;11.18;7.63;;;17.40;99.90;;;;;;4995976;28;20105;-74
2022/06/27 04:48:32;;;;;;;11.73;7.38;;;17.50;99.90;;;;;;4994549;28;20390;-74
2022/06/27 04:50:59;;;;;;;10.45;6.80;;;17.50;99.90;;;;;;4996045;28;20046;-74
2022/06/27 04:53:24;;;;;;;11.25;7.55;;;17.60;99.90;;;;;;4995664;28;20050;-74
2022/06/27 04:55:50;;;;;;;9.23;7.05;;;17.60;99.90;;;;;;4995718;28;20519;-74
2022/06/27 04:58:16;;;;;;;9.40;6.75;;;17.60;99.90;;;;;;4996111;28;20042;-74
2022/06/27 05:00:42;;;;;;;9.13;6.80;;;17.70;99.90;;;;;;4974875;28;20050;-75
2022/06/27 05:03:08;;;;;;;9.40;7.22;;;17.70;99.90;;;;;;4995190;28;20468;-75
2022/06/27 05:05:34;;;;;;;8.52;6.85;;;17.80;99.90;;;;;;4995254;28;20050;-74
2022/06/27 05:08:01;;;;;;;10.10;7.10;;;17.80;99.90;;;;;;4995697;28;20061;-75
2022/06/27 05:10:28;;;;;;;9.95;7.78;;;17.90;99.90;;;;;;4995778;28;20053;-74
2022/06/27 05:12:54;;;;;;;10.70;7.13;;;18.00;99.90;;;;;;4995784;28;20338;-75
2022/06/27 05:15:19;;;;;;;11.00;8.77;;;18.10;99.90;;;;;;4995690;28;20062;-74
2022/06/27 05:17:45;;;;;;;12.63;8.27;;;18.10;99.90;;;;;;4994716;28;20030;-74
2022/06/27 05:20:12;;;;;;;9.63;8.63;;;18.10;99.90;;;;;;4995007;28;20050;-75
2022/06/27 05:22:38;;;;;;;10.40;8.25;;;18.10;99.90;;;;;;4995366;28;20065;-75
2022/06/27 05:25:05;;;;;;;12.23;8.15;;;18.20;99.90;;;;;;4993988;28;20069;-75
2022/06/27 05:27:30;;;;;;;13.95;8.15;;;18.30;99.90;;;;;;4995370;28;20141;-74
2022/06/27 05:29:56;;;;;;;11.05;8.13;;;18.30;99.90;;;;;;4995270;28;20081;-74
2022/06/27 05:32:21;;;;;;;12.55;7.93;;;18.30;99.90;;;;;;4995547;28;20133;-76
2022/06/27 05:34:48;;;;;;;15.55;9.02;;;18.40;99.90;;;;;;4994458;28;20054;-75
2022/06/27 05:37:14;;;;;;;11.13;7.22;;;18.30;99.90;;;;;;4995309;28;20101;-74
2022/06/27 05:39:43;;;;;;;11.05;8.23;;;18.40;99.90;;;;;;4995254;28;20057;-74
2022/06/27 05:42:09;;;;;;;13.27;9.23;;;18.40;99.90;;;;;;4995150;28;20504;-77
2022/06/27 05:44:34;;;;;;;10.57;8.05;;;18.40;99.90;;;;;;4995359;28;20177;-73
2022/06/27 05:47:00;;;;;;;13.85;9.00;;;18.40;99.90;;;;;;4994989;28;20646;-73
2022/06/27 05:49:27;;;;;;;9.07;8.10;;;18.50;99.90;;;;;;4995398;28;20062;-74
2022/06/27 05:51:57;;;;;;;11.05;8.25;;;18.60;99.90;;;;;;4974023;28;20058;-72
2022/06/27 05:54:24;;;;;;;9.20;7.90;;;18.60;99.90;;;;;;4975905;28;20050;-75
2022/06/27 05:56:50;;;;;;;11.95;8.88;;;18.50;99.90;;;;;;4986761;28;20405;-75
2022/06/27 05:59:17;;;;;;;13.38;8.63;;;18.60;99.90;;;;;;4995232;28;20056;-74
2022/06/27 06:01:45;;;;;;;13.02;8.70;;;18.50;99.90;;;;;;4998789;28;20133;-74
2022/06/27 06:04:10;;;;;;;11.85;9.40;;;18.50;99.90;;;;;;4999021;28;20057;-74
2022/06/27 06:06:36;;;;;;;15.32;9.60;;;18.50;99.90;;;;;;4998903;28;20353;-73
2022/06/27 06:09:03;;;;;;;12.00;10.23;;;18.60;99.90;;;;;;5005651;28;20355;-73
2022/06/27 06:11:30;;;;;;;14.63;9.98;;;18.60;99.90;;;;;;5009198;28;20117;-73
2022/06/27 06:13:56;;;;;;;11.13;10.02;;;18.60;99.90;;;;;;5007778;28;20104;-73
2022/06/27 06:16:22;;;;;;;10.35;9.35;;;18.70;99.90;;;;;;5007406;28;20065;-74
2022/06/27 06:18:57;;;;;;;11.55;10.02;;;18.70;99.90;;;;;;5008994;28;20113;-73
2022/06/27 06:21:23;;;;;;;;;;;18.80;99.90;;;;;;5008969;28;20114;-73
2022/06/27 06:23:51;;;;;;;15.82;12.77;;;18.90;99.90;;;;;;5015215;28;19968;-73
2022/06/27 06:26:19;;;;;;;14.43;12.07;;;18.90;99.90;;;;;;5002938;28;20200;-73
2022/06/27 06:28:45;;;;;;;14.23;12.73;;;19.00;99.90;;;;;;4998543;28;20050;-73
2022/06/27 06:31:21;;;;;;;14.93;11.73;;;19.00;99.90;;;;;;4998463;28;20093;-74
2022/06/27 06:33:51;;;;;;;16.95;12.18;;;19.10;99.90;;;;;;4998545;28;20050;-74
2022/06/27 06:36:18;;;;;;;21.30;12.77;;;19.00;99.90;;;;;;4998322;28;20058;-71
2022/06/27 06:38:44;;;;;;;13.55;12.15;;;19.20;99.90;;;;;;4998195;28;20057;-74
2022/06/27 06:41:10;;;;;;;16.92;12.88;;;19.20;99.90;;;;;;4964236;28;20362;-71
2022/06/27 06:43:36;;;;;;;14.73;11.80;;;19.20;99.90;;;;;;4997552;28;20054;-73
2022/06/27 06:46:02;;;;;;;12.30;10.50;;;19.30;99.90;;;;;;4998189;28;20046;-74
2022/06/27 06:48:27;;;;;;;16.60;13.45;;;19.30;99.90;;;;;;4998358;28;20061;-74
2022/06/27 06:50:54;;;;;;;17.38;12.35;;;19.30;99.90;;;;;;4998491;28;20046;-74
2022/06/27 06:53:21;;;;;;;16.00;13.35;;;19.30;99.90;;;;;;4998340;28;20368;-76
2022/06/27 06:55:47;;;;;;;20.42;12.23;;;19.30;99.90;;;;;;4998382;28;20411;-77
2022/06/27 06:58:13;;;;;;;12.18;10.82;;;19.40;99.90;;;;;;4997747;28;20082;-76
2022/06/27 07:00:39;;;;;;;17.05;12.45;;;19.40;99.90;;;;;;4997125;28;20047;-76
2022/06/27 07:03:05;;;;;;;18.00;15.48;;;19.40;99.90;;;;;;4998118;28;20050;-76
2022/06/27 07:05:32;;;;;;;16.10;14.45;;;19.30;99.90;;;;;;4997915;28;20051;-76
2022/06/27 07:08:00;;;;;;;16.88;13.50;;;19.30;99.90;;;;;;4998257;28;20046;-75
2022/06/27 07:10:26;;;;;;;18.60;14.60;;;19.30;99.90;;;;;;4997672;28;20061;-76
2022/06/27 07:12:51;;;;;;;18.90;16.45;;;19.10;99.90;;;;;;4996671;28;20050;-76
2022/06/27 07:15:17;;;;;;;17.35;14.52;;;19.10;99.90;;;;;;4997931;28;20089;-76
2022/06/27 07:17:46;;;;;;;19.77;15.57;;;19.00;99.90;;;;;;4996840;28;20283;-73
2022/06/27 07:20:13;;;;;;;17.77;14.82;;;19.00;99.90;;;;;;4997483;28;20389;-73
2022/06/27 07:22:40;;;;;;;18.17;14.32;;;19.00;99.90;;;;;;4997621;28;20101;-74
2022/06/27 07:25:07;;;;;;;17.23;15.52;;;19.00;99.90;;;;;;4997221;28;20074;-75
2022/06/27 07:27:34;;;;;;;14.98;13.38;;;18.90;99.90;;;;;;4997446;28;20046;-74
2022/06/27 07:30:01;;;;;;;14.25;11.85;;;18.90;99.90;;;;;;4997848;28;20050;-74
2022/06/27 07:32:27;;;;;;;16.23;14.57;;;19.00;99.90;;;;;;4997455;28;20042;-74
2022/06/27 07:34:54;;;;;;;15.43;13.82;;;19.10;99.90;;;;;;4976601;28;20054;-73
2022/06/27 07:37:20;;;;;;;17.05;15.27;;;19.10;99.90;;;;;;4978096;28;20050;-73
2022/06/27 07:39:46;;;;;;;14.25;12.77;;;19.00;99.90;;;;;;4977789;28;20049;-74
2022/06/27 07:42:12;;;;;;;18.02;13.40;;;19.10;99.90;;;;;;4978273;28;20043;-73
2022/06/27 07:44:38;;;;;;;20.05;15.93;;;19.20;99.90;;;;;;4977872;28;20042;-72
2022/06/27 07:47:04;;;;;;;16.95;15.02;;;19.20;99.90;;;;;;4976753;28;20047;-74
2022/06/27 07:49:30;;;;;;;21.60;15.43;;;19.20;99.90;;;;;;4977704;28;20061;-72
2022/06/27 07:51:57;;;;;;;15.70;13.88;;;19.30;99.90;;;;;;4996889;28;20428;-77
2022/06/27 07:54:23;;;;;;;15.85;14.25;;;19.40;99.90;;;;;;4996977;28;20086;-76
2022/06/27 07:56:51;;;;;;;15.68;12.85;;;19.30;99.90;;;;;;4979598;28;20061;-80
2022/06/27 07:59:17;;;;;;;16.35;14.35;;;19.20;99.90;;;;;;4996933;28;20046;-73
2022/06/27 08:01:44;;;;;;;15.75;13.23;;;19.30;99.90;;;;;;4996608;28;20457;-75
2022/06/27 08:04:11;;;;;;;15.27;11.70;;;19.20;99.90;;;;;;4982603;28;20046;-74
2022/06/27 08:06:37;;;;;;;16.23;13.18;;;19.20;99.90;;;;;;4960927;28;20122;-75
2022/06/27 08:09:07;;;;;;;13.57;12.13;;;19.10;99.90;;;;;;4996587;28;20047;-74
2022/06/27 08:11:38;;;;;;;17.15;13.05;;;19.10;99.90;;;;;;4996573;28;20448;-73
2022/06/27 08:14:07;;;;;;;14.43;12.23;;;19.10;99.90;;;;;;4996379;28;20050;-73
2022/06/27 08:16:35;;;;;;;12.43;10.73;;;19.20;99.90;;;;;;4996557;28;20082;-74
2022/06/27 08:19:01;;;;;;;11.55;10.35;;;19.30;99.90;;;;;;4996083;28;20054;-72
2022/06/27 08:21:28;;;;;;;16.27;12.38;;;19.30;99.90;;;;;;4996366;28;20046;-74
2022/06/27 08:23:59;;;;;;;16.52;12.20;;;19.40;99.90;;;;;;4995095;28;20420;-71
2022/06/27 08:26:26;;;;;;;17.08;13.00;;;19.40;99.90;;;;;;4996344;28;20042;-71
2022/06/27 08:28:52;;;;;;;13.35;11.80;;;19.50;99.90;;;;;;4996368;28;20046;-74
2022/06/27 08:31:19;;;;;;;13.18;10.95;;;19.50;99.90;;;;;;4979208;28;20050;-79
2022/06/27 08:33:46;;;;;;;14.32;11.18;;;19.70;99.90;;;;;;4996047;28;20042;-80
2022/06/27 08:36:14;;;;;;;13.55;11.95;;;19.60;99.90;;;;;;4979152;28;20125;-75
2022/06/27 08:38:45;;;;;;;14.35;12.85;;;19.60;99.90;;;;;;4996019;28;20342;-75
2022/06/27 08:41:12;;;;;;;14.20;12.70;;;19.60;99.90;;;;;;4994787;28;20112;-74
2022/06/27 08:43:38;;;;;;;20.45;14.88;;;19.50;99.90;;;;;;4997620;28;20042;-73
2022/06/27 08:46:06;;;;;;;18.70;13.55;;;19.40;99.90;;;;;;4995515;28;20138;-72
2022/06/27 08:48:32;;;;;;;15.73;14.13;;;19.40;99.90;;;;;;4979110;28;20046;-70
2022/06/27 08:50:59;;;;;;;18.42;14.85;;;19.40;99.90;;;;;;4995805;28;20181;-71
2022/06/27 08:53:26;;;;;;;16.10;12.98;;;19.60;99.90;;;;;;4995297;28;20401;-68
2022/06/27 08:55:52;;;;;;;14.43;12.90;;;19.70;99.90;;;;;;4995586;28;20113;-71
2022/06/27 08:58:19;;;;;;;14.48;12.98;;;19.90;99.90;;;;;;4995111;28;20493;-71
2022/06/27 09:00:45;;;;;;;17.08;13.25;;;20.10;99.90;;;;;;4995277;28;20054;-73
2022/06/27 09:03:19;;;;;;;15.68;13.90;;;20.00;99.90;;;;;;4995731;28;20061;-73
2022/06/27 09:06:02;;;;;;;18.63;13.80;;;20.10;99.90;;;;;;4995614;28;20407;-74
2022/06/27 09:08:34;;;;;;;14.48;12.75;;;20.20;99.90;;;;;;4995634;28;20096;-72
2022/06/27 09:11:00;;;;;;;15.57;12.68;;;20.30;99.90;;;;;;4995428;28;20043;-69
2022/06/27 09:13:28;;;;;;;13.65;11.70;;;20.30;99.90;;;;;;4995420;28;20094;-69
2022/06/27 09:15:58;;;;;;;18.30;11.30;;;20.30;99.90;;;;;;4994654;28;20119;-70
2022/06/27 09:18:28;;;;;;;14.50;11.38;;;20.30;99.90;;;;;;4995330;28;20046;-71
2022/06/27 09:21:06;;;;;;;13.68;11.40;;;20.30;99.90;;;;;;4995368;28;20042;-69
2022/06/27 09:23:40;;;;;;;13.60;11.23;;;20.60;99.90;;;;;;4978145;28;20354;-70
2022/06/27 09:26:18;;;;;;;12.65;10.88;;;20.80;99.90;;;;;;4995297;28;20046;-71
2022/06/27 09:28:47;;;;;;;14.30;11.77;;;21.10;99.90;;;;;;4993229;28;20053;-72
2022/06/27 09:31:32;;;;;;;13.70;12.15;;;21.30;99.90;;;;;;4995301;28;20431;-71
2022/06/27 09:34:03;;;;;;;14.07;11.65;;;21.10;99.90;;;;;;4994308;28;20511;-72
2022/06/27 09:36:30;;;;;;;16.17;11.20;;;21.20;99.90;;;;;;4994845;28;20038;-70
2022/06/27 09:38:57;;;;;;;15.88;10.95;;;21.20;99.90;;;;;;5005256;28;20042;-72
2022/06/27 09:41:26;;;;;;;14.35;11.27;;;21.20;99.90;;;;;;5014548;28;20404;-70
2022/06/27 09:43:54;;;;;;;11.05;9.95;;;21.20;99.90;;;;;;5014308;28;20538;-70
2022/06/27 09:46:23;;;;;;;12.77;10.05;;;21.20;99.90;;;;;;5014726;28;20050;-69
2022/06/27 09:48:52;;;;;;;13.65;10.63;;;21.00;99.90;;;;;;5000396;28;20043;-69
2022/06/27 09:51:18;;;;;;;13.23;9.63;;;21.00;99.90;;;;;;5000577;28;20071;-72
2022/06/27 09:53:44;;;;;;;10.98;8.80;;;21.00;99.90;;;;;;5014240;28;20061;-70
2022/06/27 09:56:13;;;;;;;12.85;8.90;;;20.90;99.90;;;;;;5009500;28;20038;-76
2022/06/27 09:58:41;;;;;;;15.20;9.80;;;21.00;99.90;;;;;;4994997;28;20062;-76
2022/06/27 10:01:08;;;;;;;11.85;8.05;;;20.80;99.90;;;;;;4994621;28;20542;-75
2022/06/27 10:03:35;;;;;;;13.57;9.52;;;20.80;99.90;;;;;;4978107;28;20361;-76
2022/06/27 10:06:01;;;;;;;10.90;9.30;;;20.70;99.90;;;;;;4994039;28;20414;-78
2022/06/27 10:08:27;;;;;;;12.75;9.30;;;20.80;99.90;;;;;;4995060;28;20077;-74
2022/06/27 10:11:08;;;;;;;10.68;7.75;;;20.70;99.90;;;;;;4994971;28;20038;-77
2022/06/27 10:13:44;;;;;;;9.55;7.22;;;20.80;99.90;;;;;;4994887;28;20346;-74
2022/06/27 10:16:14;;;;;;;12.30;7.10;;;20.60;99.90;;;;;;4994797;28;20038;-74
2022/06/27 10:19:02;;;;;;;11.77;7.13;;;20.60;99.90;;;;;;4994818;28;20134;-74
2022/06/27 10:21:31;;;;;;;10.38;7.43;;;20.60;99.90;;;;;;4994818;28;20112;-74
2022/06/27 10:24:18;;;;;;;12.82;6.57;;;20.50;99.90;;;;;;4994369;28;20118;-76
2022/06/27 10:26:46;;;;;;;11.30;7.40;;;20.70;99.90;;;;;;4994684;28;20096;-76
2022/06/27 10:29:27;;;;;;;7.47;5.88;;;20.70;99.90;;;;;;4994864;28;20499;-76
2022/06/27 10:31:53;;;;;;;10.18;6.53;;;20.90;99.90;;;;;;4994813;28;20377;-73
2022/06/27 10:34:39;;;;;;;7.82;5.97;;;20.80;99.90;;;;;;4994950;28;20077;-75
2022/06/27 10:37:26;;;;;;;9.02;5.40;;;20.70;99.90;;;;;;4993127;28;20062;-75
2022/06/27 10:39:53;;;;;;;9.45;5.20;;;20.80;99.90;;;;;;4993747;28;20054;-72
2022/06/27 10:42:43;;;;;;;9.25;5.65;;;20.80;99.90;;;;;;4994657;28;20039;-74
2022/06/27 10:45:21;;;;;;;7.47;4.10;;;20.90;99.90;;;;;;4994484;28;20049;-75
2022/06/27 10:47:47;;;;;;;10.30;5.28;;;20.90;99.90;;;;;;4996645;28;20058;-77
2022/06/27 10:50:42;;;;;;;10.57;5.10;;;21.00;99.90;;;;;;4998262;28;20074;-75
2022/06/27 10:53:26;;;;;;;7.13;4.38;;;21.10;99.90;;;;;;4997532;28;20136;-76
2022/06/27 10:55:53;;;;;;;7.80;5.43;;;21.00;99.90;;;;;;4996056;28;20053;-76
2022/06/27 10:58:21;;;;;;;11.23;5.45;;;20.90;99.90;;;;;;4997403;28;20042;-76
2022/06/27 11:00:51;;;;;;;22.33;6.05;;;20.80;99.90;;;;;;4998019;28;20061;-81
2022/06/27 11:03:22;;;;;;;10.88;5.32;;;20.90;99.90;;;;;;4964941;28;20038;-76
2022/06/27 11:05:56;;;;;;;10.05;5.30;;;20.80;99.90;;;;;;4995919;28;20038;-78
2022/06/27 11:08:23;;;;;;;7.77;5.17;;;20.80;99.90;;;;;;4997422;28;20054;-76
2022/06/27 11:10:50;;;;;;;8.93;5.97;;;21.00;99.90;;;;;;4980464;28;20045;-74
2022/06/27 11:13:40;;;;;;;8.27;5.78;;;21.00;99.90;;;;;;4964590;28;20042;-74
2022/06/27 11:16:08;;;;;;;9.43;4.80;;;21.00;99.90;;;;;;4977227;28;20054;-76
2022/06/27 11:18:49;;;;;;;8.98;4.80;;;21.10;99.90;;;;;;4977961;28;20042;-75
2022/06/27 11:21:20;;;;;;;8.93;5.45;;;21.10;99.90;;;;;;4978419;28;20062;-77
2022/06/27 11:24:01;;;;;;;10.15;5.32;;;21.10;99.90;;;;;;4978438;28;20047;-76
2022/06/27 11:26:32;;;;;;;11.90;5.88;;;21.00;99.90;;;;;;4978430;28;20117;-77
2022/06/27 11:31:59;;;;;;;7.45;5.28;;;21.00;99.90;;;;;;4987329;28;20050;-79
2022/06/27 11:34:30;;;;;;;10.80;5.70;;;21.00;99.90;;;;;;4997729;28;20192;-78
2022/06/27 11:36:57;;;;;;;10.52;6.72;;;21.00;99.90;;;;;;4979675;28;20485;-76
2022/06/27 11:39:35;;;;;;;7.88;6.40;;;21.10;99.90;;;;;;4997117;28;20054;-78
2022/06/27 11:42:15;;;;;;;13.23;6.97;;;21.10;99.90;;;;;;4963767;28;20089;-79
2022/06/27 11:45:14;;;;;;;12.48;7.10;;;21.20;99.90;;;;;;4980067;28;20058;-79
2022/06/27 11:48:10;;;;;;;13.80;8.05;;;21.30;99.90;;;;;;4996449;28;20066;-77
2022/06/27 11:51:55;;;;;;;11.95;7.88;;;21.40;99.90;;;;;;4931992;29;20139;-78
2022/06/27 11:58:52;;;;;;;8.52;6.00;;;21.20;99.90;;;;;;4957876;28;20153;-77
2022/06/27 12:02:50;;;;;;;;;;;;;;;;;;;;;
2022/06/27 12:13:54;;;;;;;9.48;7.32;;;21.20;99.90;;;;;;4924597;29;20055;-77
2022/06/27 12:17:33;;;;;;;10.13;6.05;;;21.30;99.90;;;;;;4909642;29;20063;-77
2022/06/27 12:20:48;;;;;;;8.13;6.00;;;21.50;99.90;;;;;;4879864;29;20059;-77
2022/06/27 12:24:38;;;;;;;;;;;;;;;;;;;;;
2022/06/27 12:31:07;;;;;;;9.90;6.13;;;22.20;99.90;;;;;;4935871;29;20483;-77
2022/06/27 12:33:33;;;;;;;16.23;5.97;;;21.90;99.90;;;;;;4962459;28;20058;-72
2022/06/27 12:35:59;;;;;;;9.68;5.70;;;21.70;99.90;;;;;;4996160;28;20141;-73
2022/06/27 12:38:28;;;;;;;8.07;5.25;;;21.70;99.90;;;;;;4998206;28;20488;-78
2022/06/27 12:41:17;;;;;;;9.20;4.63;;;21.70;99.90;;;;;;4976740;28;20377;-79
2022/06/27 12:43:44;;;;;;;9.07;5.55;;;21.80;99.90;;;;;;4975926;28;20115;-78
2022/06/27 12:46:14;;;;;;;6.97;5.28;;;21.70;99.90;;;;;;4959481;28;20049;-77
2022/06/27 12:48:43;;;;;;;10.65;5.43;;;21.70;99.90;;;;;;4975440;28;20361;-78
2022/06/27 12:51:44;;;;;;;8.00;5.00;;;21.80;99.90;;;;;;4943825;28;20051;-78
2022/06/27 12:54:10;;;;;;;7.93;5.18;;;22.00;99.90;;;;;;4959284;28;20061;-79
2022/06/27 12:56:48;;;;;;;12.25;5.88;;;22.00;99.90;;;;;;4956586;28;20055;-78
2022/06/27 12:59:37;;;;;;;10.02;5.55;;;21.90;99.90;;;;;;4957050;29;20529;-78
2022/06/27 13:02:11;;;;;;;8.23;5.18;;;21.90;99.90;;;;;;4940540;29;20525;-80
2022/06/27 13:04:45;;;;;;;8.05;5.20;;;21.90;99.90;;;;;;4956111;29;20074;-78
2022/06/27 13:07:13;;;;;;;8.20;5.15;;;22.10;99.90;;;;;;4956046;29;20043;-78
2022/06/27 13:09:43;;;;;;;10.68;5.30;;;22.20;99.90;;;;;;4955837;28;20043;-78
2022/06/27 13:12:22;;;;;;;7.10;5.27;;;22.10;99.90;;;;;;4956105;29;20079;-78
2022/06/27 13:14:56;;;;;;;10.95;6.05;;;22.20;99.90;;;;;;4941668;29;20047;-77